sensor_id;sensor_type;location;lat;lon;timestamp;pressure;altitude;pressure_sealevel;temperature
24278;BMP280;12394;42.692;23.314;2023-05-10T00:02:22;95257.34;;;9.33
24278;BMP280;12394;42.692;23.314;2023-05-10T00:04:48;95257.72;;;9.31
24278;BMP280;12394;42.692;23.314;2023-05-10T00:07:13;95254.00;;;9.25
24278;BMP280;12394;42.692;23.314;2023-05-10T00:09:38;95256.94;;;9.20
24278;BMP280;12394;42.692;23.314;2023-05-10T00:12:05;95255.44;;;9.16
24278;BMP280;12394;42.692;23.314;2023-05-10T00:14:30;95255.09;;;9.21
24278;BMP280;12394;42.692;23.314;2023-05-10T00:16:56;95245.00;;;9.16
24278;BMP280;12394;42.692;23.314;2023-05-10T00:19:21;95244.25;;;9.08
24278;BMP280;12394;42.692;23.314;2023-05-10T00:21:47;95245.69;;;8.99
24278;BMP280;12394;42.692;23.314;2023-05-10T00:24:12;95247.16;;;8.89
24278;BMP280;12394;42.692;23.314;2023-05-10T00:26:38;95231.44;;;8.78
24278;BMP280;12394;42.692;23.314;2023-05-10T00:29:03;95228.06;;;8.74
24278;BMP280;12394;42.692;23.314;2023-05-10T00:31:28;95246.34;;;8.81
24278;BMP280;12394;42.692;23.314;2023-05-10T00:33:54;95227.66;;;8.65
24278;BMP280;12394;42.692;23.314;2023-05-10T00:36:19;95239.63;;;8.73
24278;BMP280;12394;42.692;23.314;2023-05-10T00:38:46;95233.22;;;8.64
24278;BMP280;12394;42.692;23.314;2023-05-10T00:41:11;95228.00;;;8.57
24278;BMP280;12394;42.692;23.314;2023-05-10T00:43:36;95236.25;;;8.69
24278;BMP280;12394;42.692;23.314;2023-05-10T00:46:02;95227.59;;;8.51
24278;BMP280;12394;42.692;23.314;2023-05-10T00:48:28;95219.75;;;8.47
24278;BMP280;12394;42.692;23.314;2023-05-10T00:50:54;95230.97;;;8.59
24278;BMP280;12394;42.692;23.314;2023-05-10T00:53:20;95229.84;;;8.56
24278;BMP280;12394;42.692;23.314;2023-05-10T00:55:45;95234.38;;;8.63
24278;BMP280;12394;42.692;23.314;2023-05-10T00:58:11;95232.47;;;8.63
24278;BMP280;12394;42.692;23.314;2023-05-10T01:00:37;95222.38;;;8.55
24278;BMP280;12394;42.692;23.314;2023-05-10T01:03:06;95229.16;;;8.66
24278;BMP280;12394;42.692;23.314;2023-05-10T01:05:33;95235.06;;;8.60
24278;BMP280;12394;42.692;23.314;2023-05-10T01:07:58;95227.25;;;8.56
24278;BMP280;12394;42.692;23.314;2023-05-10T01:10:23;95240.28;;;8.53
24278;BMP280;12394;42.692;23.314;2023-05-10T01:12:49;95222.34;;;8.47
24278;BMP280;12394;42.692;23.314;2023-05-10T01:15:15;95199.13;;;8.25
24278;BMP280;12394;42.692;23.314;2023-05-10T01:17:43;95218.59;;;8.45
24278;BMP280;12394;42.692;23.314;2023-05-10T01:20:10;95206.69;;;8.44
24278;BMP280;12394;42.692;23.314;2023-05-10T01:29:11;95214.84;;;8.35
24278;BMP280;12394;42.692;23.314;2023-05-10T01:34:29;95207.41;;;8.37
24278;BMP280;12394;42.692;23.314;2023-05-10T01:37:03;95217.06;;;8.37
24278;BMP280;12394;42.692;23.314;2023-05-10T01:42:13;95198.38;;;8.28
24278;BMP280;12394;42.692;23.314;2023-05-10T01:44:50;95183.47;;;8.25
24278;BMP280;12394;42.692;23.314;2023-05-10T01:47:35;95195.13;;;8.38
24278;BMP280;12394;42.692;23.314;2023-05-10T01:50:04;95204.03;;;8.37
24278;BMP280;12394;42.692;23.314;2023-05-10T01:52:38;95200.69;;;8.36
24278;BMP280;12394;42.692;23.314;2023-05-10T01:55:09;95199.16;;;8.32
24278;BMP280;12394;42.692;23.314;2023-05-10T01:57:37;95189.81;;;8.27
24278;BMP280;12394;42.692;23.314;2023-05-10T02:00:24;95200.69;;;8.36
24278;BMP280;12394;42.692;23.314;2023-05-10T02:02:51;95204.03;;;8.37
24278;BMP280;12394;42.692;23.314;2023-05-10T02:05:19;95194.66;;;8.29
24278;BMP280;12394;42.692;23.314;2023-05-10T02:07:45;95201.44;;;8.37
24278;BMP280;12394;42.692;23.314;2023-05-10T02:10:11;95192.06;;;8.29
24278;BMP280;12394;42.692;23.314;2023-05-10T02:12:43;95207.41;;;8.37
24278;BMP280;12394;42.692;23.314;2023-05-10T02:15:10;95202.16;;;8.34
24278;BMP280;12394;42.692;23.314;2023-05-10T02:17:37;95195.34;;;8.22
24278;BMP280;12394;42.692;23.314;2023-05-10T02:20:06;95209.53;;;8.25
24278;BMP280;12394;42.692;23.314;2023-05-10T02:22:33;95193.41;;;8.05
24278;BMP280;12394;42.692;23.314;2023-05-10T02:25:00;95209.13;;;8.19
24278;BMP280;12394;42.692;23.314;2023-05-10T02:27:27;95203.44;;;8.03
24278;BMP280;12394;42.692;23.314;2023-05-10T02:29:54;95207.94;;;8.10
24278;BMP280;12394;42.692;23.314;2023-05-10T02:32:21;95204.19;;;8.03
24278;BMP280;12394;42.692;23.314;2023-05-10T02:34:48;95206.06;;;8.07
24278;BMP280;12394;42.692;23.314;2023-05-10T02:37:19;95213.44;;;7.94
24278;BMP280;12394;42.692;23.314;2023-05-10T02:39:49;95196.63;;;7.84
24278;BMP280;12394;42.692;23.314;2023-05-10T02:42:26;95209.19;;;7.75
24278;BMP280;12394;42.692;23.314;2023-05-10T02:45:05;95205.75;;;7.64
24278;BMP280;12394;42.692;23.314;2023-05-10T02:47:33;95206.81;;;7.56
24278;BMP280;12394;42.692;23.314;2023-05-10T02:49:58;95220.22;;;7.58
24278;BMP280;12394;42.692;23.314;2023-05-10T02:52:30;95206.81;;;7.56
24278;BMP280;12394;42.692;23.314;2023-05-10T02:55:02;95203.81;;;7.54
24278;BMP280;12394;42.692;23.314;2023-05-10T02:57:33;95211.22;;;7.48
24278;BMP280;12394;42.692;23.314;2023-05-10T03:00:00;95187.69;;;7.38
24278;BMP280;12394;42.692;23.314;2023-05-10T03:02:26;95202.31;;;7.53
24278;BMP280;12394;42.692;23.314;2023-05-10T03:04:51;95208.94;;;7.47
24278;BMP280;12394;42.692;23.314;2023-05-10T03:07:17;95215.66;;;7.48
24278;BMP280;12394;42.692;23.314;2023-05-10T03:09:46;95206.03;;;7.52
24278;BMP280;12394;42.692;23.314;2023-05-10T03:15:37;95204.59;;;7.58
24278;BMP280;12394;42.692;23.314;2023-05-10T03:20:47;95215.00;;;7.58
24278;BMP280;12394;42.692;23.314;2023-05-10T03:23:27;95193.75;;;7.52
24278;BMP280;12394;42.692;23.314;2023-05-10T03:25:52;95206.88;;;7.63
24278;BMP280;12394;42.692;23.314;2023-05-10T03:28:20;95206.91;;;7.70
24278;BMP280;12394;42.692;23.314;2023-05-10T03:30:46;95219.31;;;7.84
24278;BMP280;12394;42.692;23.314;2023-05-10T03:33:12;95220.44;;;7.86
24278;BMP280;12394;42.692;23.314;2023-05-10T03:35:38;95217.13;;;7.93
24278;BMP280;12394;42.692;23.314;2023-05-10T03:38:04;95213.78;;;7.89
24278;BMP280;12394;42.692;23.314;2023-05-10T03:40:29;95221.25;;;7.94
24278;BMP280;12394;42.692;23.314;2023-05-10T03:42:57;95225.72;;;7.93
24278;BMP280;12394;42.692;23.314;2023-05-10T03:45:22;95220.84;;;7.88
24278;BMP280;12394;42.692;23.314;2023-05-10T03:47:47;95218.97;;;7.89
24278;BMP280;12394;42.692;23.314;2023-05-10T03:50:13;95222.72;;;7.91
24278;BMP280;12394;42.692;23.314;2023-05-10T03:52:38;95225.63;;;7.86
24278;BMP280;12394;42.692;23.314;2023-05-10T03:55:07;95229.00;;;7.87
24278;BMP280;12394;42.692;23.314;2023-05-10T03:57:33;95227.81;;;7.77
24278;BMP280;12394;42.692;23.314;2023-05-10T03:59:58;95235.31;;;7.86
24278;BMP280;12394;42.692;23.314;2023-05-10T04:02:24;95223.41;;;7.85
24278;BMP280;12394;42.692;23.314;2023-05-10T04:04:49;95231.63;;;7.90
24278;BMP280;12394;42.692;23.314;2023-05-10T04:07:15;95244.72;;;8.01
24278;BMP280;12394;42.692;23.314;2023-05-10T04:09:40;95242.47;;;7.99
24278;BMP280;12394;42.692;23.314;2023-05-10T04:12:06;95244.75;;;8.04
24278;BMP280;12394;42.692;23.314;2023-05-10T04:14:31;95237.00;;;8.12
24278;BMP280;12394;42.692;23.314;2023-05-10T04:16:57;95251.50;;;8.09
24278;BMP280;12394;42.692;23.314;2023-05-10T04:19:22;95254.84;;;8.10
24278;BMP280;12394;42.692;23.314;2023-05-10T04:21:48;95251.88;;;8.11
24278;BMP280;12394;42.692;23.314;2023-05-10T04:24:13;95230.59;;;7.98
24278;BMP280;12394;42.692;23.314;2023-05-10T04:26:38;95250.38;;;8.10
24278;BMP280;12394;42.692;23.314;2023-05-10T04:29:04;95252.25;;;8.10
24278;BMP280;12394;42.692;23.314;2023-05-10T04:31:29;95251.50;;;8.09
24278;BMP280;12394;42.692;23.314;2023-05-10T04:33:54;95241.06;;;8.09
24278;BMP280;12394;42.692;23.314;2023-05-10T04:36:20;95248.81;;;7.98
24278;BMP280;12394;42.692;23.314;2023-05-10T04:38:45;95254.84;;;8.10
24278;BMP280;12394;42.692;23.314;2023-05-10T04:41:11;95248.19;;;8.12
24278;BMP280;12394;42.692;23.314;2023-05-10T04:43:37;95260.06;;;8.13
24278;BMP280;12394;42.692;23.314;2023-05-10T04:46:03;95241.44;;;8.08
24278;BMP280;12394;42.692;23.314;2023-05-10T04:48:29;95251.13;;;8.07
24278;BMP280;12394;42.692;23.314;2023-05-10T04:50:55;95253.41;;;8.16
24278;BMP280;12394;42.692;23.314;2023-05-10T04:53:20;95253.44;;;8.23
24278;BMP280;12394;42.692;23.314;2023-05-10T04:55:46;95254.94;;;8.24
24278;BMP280;12394;42.692;23.314;2023-05-10T04:58:12;95251.88;;;8.11
24278;BMP280;12394;42.692;23.314;2023-05-10T05:00:37;95248.13;;;8.09
24278;BMP280;12394;42.692;23.314;2023-05-10T05:03:03;95242.88;;;7.98
24278;BMP280;12394;42.692;23.314;2023-05-10T05:05:29;95249.19;;;8.00
24278;BMP280;12394;42.692;23.314;2023-05-10T05:07:54;95246.25;;;8.05
24278;BMP280;12394;42.692;23.314;2023-05-10T05:10:20;95258.22;;;8.14
24278;BMP280;12394;42.692;23.314;2023-05-10T05:12:45;95260.50;;;8.22
24278;BMP280;12394;42.692;23.314;2023-05-10T05:15:10;95259.06;;;8.25
24278;BMP280;12394;42.692;23.314;2023-05-10T05:17:36;95251.25;;;8.28
24278;BMP280;12394;42.692;23.314;2023-05-10T05:20:02;95264.00;;;8.37
24278;BMP280;12394;42.692;23.314;2023-05-10T05:22:47;95265.91;;;8.40
24278;BMP280;12394;42.692;23.314;2023-05-10T05:25:13;95255.91;;;8.49
24278;BMP280;12394;42.692;23.314;2023-05-10T05:27:38;95266.34;;;8.53
24278;BMP280;12394;42.692;23.314;2023-05-10T05:30:04;95257.84;;;8.66
24278;BMP280;12394;42.692;23.314;2023-05-10T05:32:30;95267.28;;;8.88
24278;BMP280;12394;42.692;23.314;2023-05-10T05:34:55;95268.72;;;8.79
24278;BMP280;12394;42.692;23.314;2023-05-10T05:37:21;95267.53;;;8.69
24278;BMP280;12394;42.692;23.314;2023-05-10T05:39:46;95272.78;;;8.73
24278;BMP280;12394;42.692;23.314;2023-05-10T05:42:12;95264.91;;;8.62
24278;BMP280;12394;42.692;23.314;2023-05-10T05:44:38;95276.84;;;8.67
24278;BMP280;12394;42.692;23.314;2023-05-10T05:47:05;95263.31;;;8.47
24278;BMP280;12394;42.692;23.314;2023-05-10T05:49:31;95278.22;;;8.50
24278;BMP280;12394;42.692;23.314;2023-05-10T05:52:00;95279.72;;;8.47
24278;BMP280;12394;42.692;23.314;2023-05-10T05:54:26;95287.19;;;8.53
24278;BMP280;12394;42.692;23.314;2023-05-10T05:56:56;95283.06;;;8.44
24278;BMP280;12394;42.692;23.314;2023-05-10T05:59:22;95277.03;;;8.37
24278;BMP280;12394;42.692;23.314;2023-05-10T06:01:47;95285.59;;;8.37
24278;BMP280;12394;42.692;23.314;2023-05-10T06:04:12;95265.81;;;8.29
24278;BMP280;12394;42.692;23.314;2023-05-10T06:06:38;95284.47;;;8.35
24278;BMP280;12394;42.692;23.314;2023-05-10T06:09:03;95284.81;;;8.30
24278;BMP280;12394;42.692;23.314;2023-05-10T06:11:29;95283.34;;;8.36
24278;BMP280;12394;42.692;23.314;2023-05-10T06:13:57;95287.09;;;8.38
24278;BMP280;12394;42.692;23.314;2023-05-10T06:16:22;95287.78;;;8.32
24278;BMP280;12394;42.692;23.314;2023-05-10T06:18:48;95295.69;;;8.39
24278;BMP280;12394;42.692;23.314;2023-05-10T06:21:13;95296.75;;;8.34
24278;BMP280;12394;42.692;23.314;2023-05-10T06:23:39;95290.81;;;8.37
24278;BMP280;12394;42.692;23.314;2023-05-10T06:26:05;95297.50;;;8.35
24278;BMP280;12394;42.692;23.314;2023-05-10T06:28:30;95284.81;;;8.30
24278;BMP280;12394;42.692;23.314;2023-05-10T06:30:57;95292.59;;;8.26
24278;BMP280;12394;42.692;23.314;2023-05-10T06:33:22;95303.16;;;8.44
24278;BMP280;12394;42.692;23.314;2023-05-10T06:35:49;95286.38;;;8.45
24278;BMP280;12394;42.692;23.314;2023-05-10T06:38:15;95299.13;;;8.54
24278;BMP280;12394;42.692;23.314;2023-05-10T06:40:43;95282.75;;;8.53
24278;BMP280;12394;42.692;23.314;2023-05-10T06:43:29;95291.00;;;8.69
24278;BMP280;12394;42.692;23.314;2023-05-10T06:45:54;95308.84;;;8.60
24278;BMP280;12394;42.692;23.314;2023-05-10T06:48:20;95295.06;;;8.63
24278;BMP280;12394;42.692;23.314;2023-05-10T06:50:46;95298.84;;;8.69
24278;BMP280;12394;42.692;23.314;2023-05-10T06:53:12;95301.09;;;8.67
24278;BMP280;12394;42.692;23.314;2023-05-10T06:55:38;95296.19;;;8.62
24278;BMP280;12394;42.692;23.314;2023-05-10T06:58:04;95309.28;;;8.69
24278;BMP280;12394;42.692;23.314;2023-05-10T07:00:29;95310.06;;;8.77
24278;BMP280;12394;42.692;23.314;2023-05-10T07:02:55;95307.44;;;8.77
24278;BMP280;12394;42.692;23.314;2023-05-10T07:05:21;95313.06;;;8.82
24278;BMP280;12394;42.692;23.314;2023-05-10T07:07:48;95314.19;;;8.81
24278;BMP280;12394;42.692;23.314;2023-05-10T07:10:15;95302.97;;;8.77
24278;BMP280;12394;42.692;23.314;2023-05-10T07:12:40;95317.25;;;8.94
24278;BMP280;12394;42.692;23.314;2023-05-10T07:15:08;95315.81;;;9.04
24278;BMP280;12394;42.692;23.314;2023-05-10T07:17:33;95298.97;;;8.94
24278;BMP280;12394;42.692;23.314;2023-05-10T07:19:59;95315.72;;;8.89
24278;BMP280;12394;42.692;23.314;2023-05-10T07:22:25;95304.91;;;8.87
24278;BMP280;12394;42.692;23.314;2023-05-10T07:24:50;95315.00;;;8.96
24278;BMP280;12394;42.692;23.314;2023-05-10T07:27:16;95319.47;;;8.96
24278;BMP280;12394;42.692;23.314;2023-05-10T07:29:41;95325.44;;;8.96
24278;BMP280;12394;42.692;23.314;2023-05-10T07:32:07;95324.00;;;9.06
24278;BMP280;12394;42.692;23.314;2023-05-10T07:34:32;95316.16;;;9.02
24278;BMP280;12394;42.692;23.314;2023-05-10T07:36:58;95336.38;;;9.23
24278;BMP280;12394;42.692;23.314;2023-05-10T07:39:23;95329.72;;;9.32
24278;BMP280;12394;42.692;23.314;2023-05-10T07:41:49;95330.44;;;9.26
24278;BMP280;12394;42.692;23.314;2023-05-10T07:44:15;95316.63;;;9.25
24278;BMP280;12394;42.692;23.314;2023-05-10T07:46:43;95321.53;;;9.41
24278;BMP280;12394;42.692;23.314;2023-05-10T07:49:08;95318.94;;;9.45
24278;BMP280;12394;42.692;23.314;2023-05-10T07:51:34;95331.63;;;9.43
24278;BMP280;12394;42.692;23.314;2023-05-10T07:53:59;95323.06;;;9.53
24278;BMP280;12394;42.692;23.314;2023-05-10T07:56:27;95311.88;;;9.56
24278;BMP280;12394;42.692;23.314;2023-05-10T07:58:55;95335.47;;;9.84
24278;BMP280;12394;42.692;23.314;2023-05-10T08:01:22;95336.22;;;9.95
24278;BMP280;12394;42.692;23.314;2023-05-10T08:03:48;95335.09;;;9.89
24278;BMP280;12394;42.692;23.314;2023-05-10T08:06:15;95333.56;;;9.77
24278;BMP280;12394;42.692;23.314;2023-05-10T08:08:41;95338.03;;;9.73
24278;BMP280;12394;42.692;23.314;2023-05-10T08:11:06;95329.44;;;9.62
24278;BMP280;12394;42.692;23.314;2023-05-10T08:13:32;95330.91;;;9.56
24278;BMP280;12394;42.692;23.314;2023-05-10T08:15:57;95333.13;;;9.54
24278;BMP280;12394;42.692;23.314;2023-05-10T08:18:25;95333.22;;;9.72
24278;BMP280;12394;42.692;23.314;2023-05-10T08:20:56;95339.94;;;9.83
24278;BMP280;12394;42.692;23.314;2023-05-10T08:23:22;95338.47;;;9.90
24278;BMP280;12394;42.692;23.314;2023-05-10T08:25:47;95330.25;;;9.95
24278;BMP280;12394;42.692;23.314;2023-05-10T08:28:13;95339.97;;;9.98
24278;BMP280;12394;42.692;23.314;2023-05-10T08:30:38;95324.66;;;10.00
24278;BMP280;12394;42.692;23.314;2023-05-10T08:33:03;95339.59;;;10.10
24278;BMP280;12394;42.692;23.314;2023-05-10T08:35:29;95342.94;;;10.00
24278;BMP280;12394;42.692;23.314;2023-05-10T08:37:54;95339.56;;;9.85
24278;BMP280;12394;42.692;23.314;2023-05-10T08:40:20;95336.94;;;9.74
24278;BMP280;12394;42.692;23.314;2023-05-10T08:42:55;95334.69;;;9.69
24278;BMP280;12394;42.692;23.314;2023-05-10T08:45:23;95335.78;;;9.65
24278;BMP280;12394;42.692;23.314;2023-05-10T08:47:49;95342.50;;;9.62
24278;BMP280;12394;42.692;23.314;2023-05-10T08:50:15;95332.75;;;9.49
24278;BMP280;12394;42.692;23.314;2023-05-10T08:52:41;95340.66;;;9.66
24278;BMP280;12394;42.692;23.314;2023-05-10T08:55:07;95348.84;;;9.61
24278;BMP280;12394;42.692;23.314;2023-05-10T08:57:33;95349.59;;;9.58
24278;BMP280;12394;42.692;23.314;2023-05-10T09:00:00;95327.13;;;9.40
24278;BMP280;12394;42.692;23.314;2023-05-10T09:02:26;95332.38;;;9.47
24278;BMP280;12394;42.692;23.314;2023-05-10T09:04:51;95343.56;;;9.47
24278;BMP280;12394;42.692;23.314;2023-05-10T09:07:17;95340.59;;;9.49
24278;BMP280;12394;42.692;23.314;2023-05-10T09:09:42;95336.88;;;9.57
24278;BMP280;12394;42.692;23.314;2023-05-10T09:12:08;95343.63;;;9.68
24278;BMP280;12394;42.692;23.314;2023-05-10T09:14:36;95327.19;;;9.68
24278;BMP280;12394;42.692;23.314;2023-05-10T09:17:03;95341.41;;;9.77
24278;BMP280;12394;42.692;23.314;2023-05-10T09:19:29;95342.94;;;10.00
24278;BMP280;12394;42.692;23.314;2023-05-10T09:21:54;95336.25;;;10.13
24278;BMP280;12394;42.692;23.314;2023-05-10T09:24:25;95340.03;;;10.44
24278;BMP280;12394;42.692;23.314;2023-05-10T09:26:51;95338.50;;;10.75
24278;BMP280;12394;42.692;23.314;2023-05-10T09:29:16;95337.34;;;10.83
24278;BMP280;12394;42.692;23.314;2023-05-10T09:32:05;95345.19;;;10.93
24278;BMP280;12394;42.692;23.314;2023-05-10T09:34:31;95343.28;;;11.08
24278;BMP280;12394;42.692;23.314;2023-05-10T09:37:00;95347.00;;;11.21
24278;BMP280;12394;42.692;23.314;2023-05-10T09:39:31;95347.41;;;10.95
24278;BMP280;12394;42.692;23.314;2023-05-10T09:41:58;95337.69;;;11.02
24278;BMP280;12394;42.692;23.314;2023-05-10T09:44:25;95336.56;;;11.07
24278;BMP280;12394;42.692;23.314;2023-05-10T09:46:51;95347.38;;;11.16
24278;BMP280;12394;42.692;23.314;2023-05-10T09:49:21;95320.16;;;10.85
24278;BMP280;12394;42.692;23.314;2023-05-10T09:51:47;95330.94;;;11.05
24278;BMP280;12394;42.692;23.314;2023-05-10T09:54:33;95335.44;;;11.08
24278;BMP280;12394;42.692;23.314;2023-05-10T09:56:59;95308.56;;;10.90
24278;BMP280;12394;42.692;23.314;2023-05-10T09:59:26;95328.00;;;10.89
24278;BMP280;12394;42.692;23.314;2023-05-10T10:01:59;95324.63;;;10.92
24278;BMP280;12394;42.692;23.314;2023-05-10T10:04:25;95326.53;;;10.84
24278;BMP280;12394;42.692;23.314;2023-05-10T10:07:04;95331.00;;;10.73
24278;BMP280;12394;42.692;23.314;2023-05-10T10:09:30;95316.06;;;10.84
24278;BMP280;12394;42.692;23.314;2023-05-10T10:11:55;95313.75;;;11.00
24278;BMP280;12394;42.692;23.314;2023-05-10T10:14:22;95299.22;;;10.85
24278;BMP280;12394;42.692;23.314;2023-05-10T10:16:49;95303.34;;;10.72
24278;BMP280;12394;42.692;23.314;2023-05-10T10:19:19;95296.63;;;10.85
24278;BMP280;12394;42.692;23.314;2023-05-10T10:21:46;95311.56;;;10.88
24278;BMP280;12394;42.692;23.314;2023-05-10T10:24:12;95312.31;;;10.89
24278;BMP280;12394;42.692;23.314;2023-05-10T10:26:37;95314.91;;;10.82
24278;BMP280;12394;42.692;23.314;2023-05-10T10:32:18;95306.69;;;10.87
24278;BMP280;12394;42.692;23.314;2023-05-10T10:35:06;95315.63;;;11.03
24278;BMP280;12394;42.692;23.314;2023-05-10T10:37:43;95316.34;;;11.04
24278;BMP280;12394;42.692;23.314;2023-05-10T10:40:31;95306.25;;;11.06
24278;BMP280;12394;42.692;23.314;2023-05-10T10:42:58;95309.56;;;11.24
24278;BMP280;12394;42.692;23.314;2023-05-10T10:45:24;95294.53;;;11.39
24278;BMP280;12394;42.692;23.314;2023-05-10T10:48:19;95312.44;;;11.51
24278;BMP280;12394;42.692;23.314;2023-05-10T10:50:45;95314.72;;;11.49
24278;BMP280;12394;42.692;23.314;2023-05-10T10:53:12;95316.56;;;11.48
24278;BMP280;12394;42.692;23.314;2023-05-10T10:55:46;95313.53;;;11.57
24278;BMP280;12394;42.692;23.314;2023-05-10T10:58:28;95323.94;;;11.68
24278;BMP280;12394;42.692;23.314;2023-05-10T11:01:13;95297.38;;;11.73
24278;BMP280;12394;42.692;23.314;2023-05-10T11:03:39;95315.34;;;11.74
24278;BMP280;12394;42.692;23.314;2023-05-10T11:06:04;95320.59;;;11.71
24278;BMP280;12394;42.692;23.314;2023-05-10T11:08:34;95307.75;;;11.94
24278;BMP280;12394;42.692;23.314;2023-05-10T11:11:06;95304.72;;;11.95
24278;BMP280;12394;42.692;23.314;2023-05-10T11:13:34;95301.41;;;11.88
24278;BMP280;12394;42.692;23.314;2023-05-10T11:16:28;95304.28;;;12.04
24278;BMP280;12394;42.692;23.314;2023-05-10T11:19:12;95305.44;;;12.03
24278;BMP280;12394;42.692;23.314;2023-05-10T11:22:13;95304.25;;;12.11
24278;BMP280;12394;42.692;23.314;2023-05-10T11:24:38;95313.91;;;12.21
24278;BMP280;12394;42.692;23.314;2023-05-10T11:27:05;95315.38;;;12.22
24278;BMP280;12394;42.692;23.314;2023-05-10T11:29:51;95304.69;;;12.02
24278;BMP280;12394;42.692;23.314;2023-05-10T11:32:19;95306.56;;;12.02
24278;BMP280;12394;42.692;23.314;2023-05-10T11:34:47;95306.66;;;11.88
24278;BMP280;12394;42.692;23.314;2023-05-10T11:37:13;95299.88;;;11.90
24278;BMP280;12394;42.692;23.314;2023-05-10T11:39:38;95307.75;;;11.94
24278;BMP280;12394;42.692;23.314;2023-05-10T11:42:03;95314.78;;;12.04
24278;BMP280;12394;42.692;23.314;2023-05-10T11:44:30;95300.56;;;12.01
24278;BMP280;12394;42.692;23.314;2023-05-10T11:47:01;95291.28;;;11.90
24278;BMP280;12394;42.692;23.314;2023-05-10T11:49:27;95310.41;;;11.83
24278;BMP280;12394;42.692;23.314;2023-05-10T11:51:52;95292.84;;;11.77
24278;BMP280;12394;42.692;23.314;2023-05-10T11:54:17;95290.22;;;11.77
24278;BMP280;12394;42.692;23.314;2023-05-10T11:56:43;95290.53;;;11.86
24278;BMP280;12394;42.692;23.314;2023-05-10T11:59:09;95302.28;;;11.60
24278;BMP280;12394;42.692;23.314;2023-05-10T12:01:35;95294.06;;;11.58
24278;BMP280;12394;42.692;23.314;2023-05-10T12:04:01;95300.38;;;11.71
24278;BMP280;12394;42.692;23.314;2023-05-10T12:06:29;95320.84;;;11.90
24278;BMP280;12394;42.692;23.314;2023-05-10T12:08:56;95298.47;;;11.79
24278;BMP280;12394;42.692;23.314;2023-05-10T12:11:25;95295.00;;;11.92
24278;BMP280;12394;42.692;23.314;2023-05-10T12:13:51;95285.59;;;11.98
24278;BMP280;12394;42.692;23.314;2023-05-10T12:16:35;95299.34;;;12.13
24278;BMP280;12394;42.692;23.314;2023-05-10T12:19:01;95292.31;;;12.03
24278;BMP280;12394;42.692;23.314;2023-05-10T12:21:28;95297.09;;;12.15
24278;BMP280;12394;42.692;23.314;2023-05-10T12:24:01;95291.47;;;12.13
24278;BMP280;12394;42.692;23.314;2023-05-10T12:26:28;95270.88;;;12.15
24278;BMP280;12394;42.692;23.314;2023-05-10T12:28:54;95277.94;;;12.18
24278;BMP280;12394;42.692;23.314;2023-05-10T12:31:19;95282.75;;;12.27
24278;BMP280;12394;42.692;23.314;2023-05-10T12:33:45;95279.34;;;12.33
24278;BMP280;12394;42.692;23.314;2023-05-10T12:36:14;95281.66;;;12.24
24278;BMP280;12394;42.692;23.314;2023-05-10T12:38:44;95275.75;;;12.13
24278;BMP280;12394;42.692;23.314;2023-05-10T12:41:14;95274.22;;;12.16
24278;BMP280;12394;42.692;23.314;2023-05-10T12:43:40;95271.22;;;12.17
24278;BMP280;12394;42.692;23.314;2023-05-10T12:48:31;95270.25;;;12.41
24278;BMP280;12394;42.692;23.314;2023-05-10T12:50:59;95275.25;;;12.29
24278;BMP280;12394;42.692;23.314;2023-05-10T12:53:24;95264.88;;;12.15
24278;BMP280;12394;42.692;23.314;2023-05-10T12:55:50;95261.22;;;12.01
24278;BMP280;12394;42.692;23.314;2023-05-10T12:58:15;95263.44;;;12.07
24278;BMP280;12394;42.692;23.314;2023-05-10T13:00:41;95257.03;;;12.11
24278;BMP280;12394;42.692;23.314;2023-05-10T13:03:06;95249.63;;;12.02
24278;BMP280;12394;42.692;23.314;2023-05-10T13:05:34;95265.31;;;12.06
24278;BMP280;12394;42.692;23.314;2023-05-10T13:08:00;95257.16;;;11.97
24278;BMP280;12394;42.692;23.314;2023-05-10T13:10:26;95239.91;;;11.96
24278;BMP280;12394;42.692;23.314;2023-05-10T13:12:51;95247.75;;;11.99
24278;BMP280;12394;42.692;23.314;2023-05-10T13:15:16;95245.16;;;11.96
24278;BMP280;12394;42.692;23.314;2023-05-10T13:17:42;95246.19;;;12.09
24278;BMP280;12394;42.692;23.314;2023-05-10T13:20:08;95239.16;;;11.95
24278;BMP280;12394;42.692;23.314;2023-05-10T13:22:35;95236.97;;;11.87
24278;BMP280;12394;42.692;23.314;2023-05-10T13:25:01;95235.50;;;11.86
24278;BMP280;12394;42.692;23.314;2023-05-10T13:27:26;95228.06;;;11.77
24278;BMP280;12394;42.692;23.314;2023-05-10T13:29:51;95230.31;;;11.79
24278;BMP280;12394;42.692;23.314;2023-05-10T13:32:17;95227.31;;;11.77
24278;BMP280;12394;42.692;23.314;2023-05-10T13:34:42;95228.09;;;11.70
24278;BMP280;12394;42.692;23.314;2023-05-10T13:37:07;95225.50;;;11.63
24278;BMP280;12394;42.692;23.314;2023-05-10T13:39:33;95220.28;;;11.63
24278;BMP280;12394;42.692;23.314;2023-05-10T13:41:59;95215.41;;;11.65
24278;BMP280;12394;42.692;23.314;2023-05-10T13:44:25;95223.59;;;11.74
24278;BMP280;12394;42.692;23.314;2023-05-10T13:46:51;95226.97;;;11.71
24278;BMP280;12394;42.692;23.314;2023-05-10T13:49:16;95227.72;;;11.72
24278;BMP280;12394;42.692;23.314;2023-05-10T13:51:43;95202.38;;;11.58
24278;BMP280;12394;42.692;23.314;2023-05-10T13:54:08;95227.41;;;11.63
24278;BMP280;12394;42.692;23.314;2023-05-10T13:56:40;95215.84;;;11.56
24278;BMP280;12394;42.692;23.314;2023-05-10T13:59:06;95193.88;;;11.36
24278;BMP280;12394;42.692;23.314;2023-05-10T14:01:32;95214.09;;;11.32
24278;BMP280;12394;42.692;23.314;2023-05-10T14:03:58;95221.56;;;11.37
24278;BMP280;12394;42.692;23.314;2023-05-10T14:06:23;95215.94;;;11.42
24278;BMP280;12394;42.692;23.314;2023-05-10T14:08:49;95215.84;;;11.56
24278;BMP280;12394;42.692;23.314;2023-05-10T14:11:14;95225.09;;;11.72
24278;BMP280;12394;42.692;23.314;2023-05-10T14:13:40;95223.63;;;11.64
24278;BMP280;12394;42.692;23.314;2023-05-10T14:16:06;95199.03;;;11.50
24278;BMP280;12394;42.692;23.314;2023-05-10T14:18:31;95214.34;;;11.55
24278;BMP280;12394;42.692;23.314;2023-05-10T14:21:01;95221.44;;;11.58
24278;BMP280;12394;42.692;23.314;2023-05-10T14:23:26;95221.44;;;11.58
24278;BMP280;12394;42.692;23.314;2023-05-10T14:25:53;95222.56;;;11.54
24278;BMP280;12394;42.692;23.314;2023-05-10T14:28:19;95217.34;;;11.54
24278;BMP280;12394;42.692;23.314;2023-05-10T14:30:45;95228.97;;;11.53